sensor_id;sensor_type;location;lat;lon;timestamp;temperature;humidity
23114;DHT22;11726;50.122;8.832;2022-10-17T00:01:28;14.30;99.90
23114;DHT22;11726;50.122;8.832;2022-10-17T00:03:54;14.30;99.90
23114;DHT22;11726;50.122;8.832;2022-10-17T00:06:21;14.30;99.90
23114;DHT22;11726;50.122;8.832;2022-10-17T00:08:47;14.20;99.90
23114;DHT22;11726;50.122;8.832;2022-10-17T00:11:22;14.20;99.90
23114;DHT22;11726;50.122;8.832;2022-10-17T00:13:50;14.20;99.90
23114;DHT22;11726;50.122;8.832;2022-10-17T00:16:24;14.20;99.90
23114;DHT22;11726;50.122;8.832;2022-10-17T00:18:51;14.10;99.90
23114;DHT22;11726;50.122;8.832;2022-10-17T00:21:19;14.10;99.90
23114;DHT22;11726;50.122;8.832;2022-10-17T00:23:46;14.10;99.90
23114;DHT22;11726;50.122;8.832;2022-10-17T00:26:14;14.10;99.90
23114;DHT22;11726;50.122;8.832;2022-10-17T00:28:41;14.10;99.90
23114;DHT22;11726;50.122;8.832;2022-10-17T00:31:08;14.10;99.90
23114;DHT22;11726;50.122;8.832;2022-10-17T00:33:35;14.00;99.90
23114;DHT22;11726;50.122;8.832;2022-10-17T00:36:11;14.10;99.90
23114;DHT22;11726;50.122;8.832;2022-10-17T00:38:40;14.10;99.90
23114;DHT22;11726;50.122;8.832;2022-10-17T00:41:13;14.10;99.90
23114;DHT22;11726;50.122;8.832;2022-10-17T00:46:17;14.10;99.90
23114;DHT22;11726;50.122;8.832;2022-10-17T00:48:44;14.20;99.90
23114;DHT22;11726;50.122;8.832;2022-10-17T00:51:11;14.10;99.90
23114;DHT22;11726;50.122;8.832;2022-10-17T00:53:38;14.10;99.90
23114;DHT22;11726;50.122;8.832;2022-10-17T00:56:05;14.10;99.90
23114;DHT22;11726;50.122;8.832;2022-10-17T00:58:32;14.10;99.90
23114;DHT22;11726;50.122;8.832;2022-10-17T01:00:59;14.10;99.90
23114;DHT22;11726;50.122;8.832;2022-10-17T01:03:27;14.00;99.90
23114;DHT22;11726;50.122;8.832;2022-10-17T01:05:53;14.00;99.90
23114;DHT22;11726;50.122;8.832;2022-10-17T01:08:20;14.00;99.90
23114;DHT22;11726;50.122;8.832;2022-10-17T01:13:52;14.00;99.90
23114;DHT22;11726;50.122;8.832;2022-10-17T01:16:45;13.90;99.90
23114;DHT22;11726;50.122;8.832;2022-10-17T01:33:35;13.70;99.90
23114;DHT22;11726;50.122;8.832;2022-10-17T01:36:11;13.70;99.90
23114;DHT22;11726;50.122;8.832;2022-10-17T01:38:52;13.60;99.90
23114;DHT22;11726;50.122;8.832;2022-10-17T01:46:45;13.70;99.90
23114;DHT22;11726;50.122;8.832;2022-10-17T01:49:17;13.60;99.90
23114;DHT22;11726;50.122;8.832;2022-10-17T01:51:52;13.60;99.90
23114;DHT22;11726;50.122;8.832;2022-10-17T01:54:30;13.60;99.90
23114;DHT22;11726;50.122;8.832;2022-10-17T01:57:00;13.60;99.90
23114;DHT22;11726;50.122;8.832;2022-10-17T01:59:37;13.60;99.90
23114;DHT22;11726;50.122;8.832;2022-10-17T02:02:05;13.60;99.90
23114;DHT22;11726;50.122;8.832;2022-10-17T02:04:34;13.60;99.90
23114;DHT22;11726;50.122;8.832;2022-10-17T02:07:11;13.50;99.90
23114;DHT22;11726;50.122;8.832;2022-10-17T02:09:38;13.50;99.90
23114;DHT22;11726;50.122;8.832;2022-10-17T02:12:23;13.50;99.90
23114;DHT22;11726;50.122;8.832;2022-10-17T02:18:31;13.50;99.90
23114;DHT22;11726;50.122;8.832;2022-10-17T02:21:23;13.40;99.90
23114;DHT22;11726;50.122;8.832;2022-10-17T02:26:35;13.40;99.90
23114;DHT22;11726;50.122;8.832;2022-10-17T02:29:19;13.40;99.90
23114;DHT22;11726;50.122;8.832;2022-10-17T02:32:01;13.30;99.90
23114;DHT22;11726;50.122;8.832;2022-10-17T02:34:39;13.30;99.90
23114;DHT22;11726;50.122;8.832;2022-10-17T02:37:09;13.20;99.90
23114;DHT22;11726;50.122;8.832;2022-10-17T02:39:38;13.10;99.90
23114;DHT22;11726;50.122;8.832;2022-10-17T02:42:07;13.10;99.90
23114;DHT22;11726;50.122;8.832;2022-10-17T02:44:50;13.10;99.90
23114;DHT22;11726;50.122;8.832;2022-10-17T02:49:56;13.10;99.90
23114;DHT22;11726;50.122;8.832;2022-10-17T02:53:00;13.20;99.90
23114;DHT22;11726;50.122;8.832;2022-10-17T02:55:35;13.20;99.90
23114;DHT22;11726;50.122;8.832;2022-10-17T02:58:10;13.20;99.90
23114;DHT22;11726;50.122;8.832;2022-10-17T03:00:38;13.20;99.90
23114;DHT22;11726;50.122;8.832;2022-10-17T03:03:19;13.20;99.90
23114;DHT22;11726;50.122;8.832;2022-10-17T03:05:46;13.20;99.90
23114;DHT22;11726;50.122;8.832;2022-10-17T03:08:13;13.20;99.90
23114;DHT22;11726;50.122;8.832;2022-10-17T03:10:39;13.00;99.90
23114;DHT22;11726;50.122;8.832;2022-10-17T03:13:06;13.10;99.90
23114;DHT22;11726;50.122;8.832;2022-10-17T03:15:32;13.00;99.90
23114;DHT22;11726;50.122;8.832;2022-10-17T03:17:59;12.90;99.90
23114;DHT22;11726;50.122;8.832;2022-10-17T03:20:25;12.90;99.90
23114;DHT22;11726;50.122;8.832;2022-10-17T03:22:52;12.90;99.90
23114;DHT22;11726;50.122;8.832;2022-10-17T03:25:18;12.90;99.90
23114;DHT22;11726;50.122;8.832;2022-10-17T03:27:45;12.80;99.90
23114;DHT22;11726;50.122;8.832;2022-10-17T03:30:12;12.80;99.90
23114;DHT22;11726;50.122;8.832;2022-10-17T03:32:38;12.80;99.90
23114;DHT22;11726;50.122;8.832;2022-10-17T03:35:05;12.80;99.90
23114;DHT22;11726;50.122;8.832;2022-10-17T03:37:33;12.80;99.90
23114;DHT22;11726;50.122;8.832;2022-10-17T03:40:00;12.80;99.90
23114;DHT22;11726;50.122;8.832;2022-10-17T03:42:27;12.70;99.90
23114;DHT22;11726;50.122;8.832;2022-10-17T03:44:53;12.70;99.90
23114;DHT22;11726;50.122;8.832;2022-10-17T03:47:20;12.80;99.90
23114;DHT22;11726;50.122;8.832;2022-10-17T03:49:46;12.80;99.90
23114;DHT22;11726;50.122;8.832;2022-10-17T03:52:13;12.70;99.90
23114;DHT22;11726;50.122;8.832;2022-10-17T03:54:40;12.70;99.90
23114;DHT22;11726;50.122;8.832;2022-10-17T03:57:07;12.70;99.90
23114;DHT22;11726;50.122;8.832;2022-10-17T03:59:33;12.70;99.90
23114;DHT22;11726;50.122;8.832;2022-10-17T04:02:00;12.70;99.90
23114;DHT22;11726;50.122;8.832;2022-10-17T04:04:27;12.70;99.90
23114;DHT22;11726;50.122;8.832;2022-10-17T04:06:53;12.70;99.90
23114;DHT22;11726;50.122;8.832;2022-10-17T04:09:20;12.70;99.90
23114;DHT22;11726;50.122;8.832;2022-10-17T04:11:46;12.70;99.90
23114;DHT22;11726;50.122;8.832;2022-10-17T04:14:13;12.80;99.90
23114;DHT22;11726;50.122;8.832;2022-10-17T04:16:39;12.80;99.90
23114;DHT22;11726;50.122;8.832;2022-10-17T04:19:06;12.80;99.90
23114;DHT22;11726;50.122;8.832;2022-10-17T04:21:33;12.80;99.90
23114;DHT22;11726;50.122;8.832;2022-10-17T04:23:59;12.80;99.90
23114;DHT22;11726;50.122;8.832;2022-10-17T04:26:26;12.80;99.90
23114;DHT22;11726;50.122;8.832;2022-10-17T04:28:53;12.80;99.90
23114;DHT22;11726;50.122;8.832;2022-10-17T04:31:20;12.80;99.90
23114;DHT22;11726;50.122;8.832;2022-10-17T04:33:48;12.80;99.90
23114;DHT22;11726;50.122;8.832;2022-10-17T04:36:19;12.80;99.90
23114;DHT22;11726;50.122;8.832;2022-10-17T04:38:46;12.70;99.90
23114;DHT22;11726;50.122;8.832;2022-10-17T04:41:15;12.70;99.90
23114;DHT22;11726;50.122;8.832;2022-10-17T04:43:42;12.70;99.90
23114;DHT22;11726;50.122;8.832;2022-10-17T04:46:15;12.70;99.90
23114;DHT22;11726;50.122;8.832;2022-10-17T04:48:42;12.70;99.90
23114;DHT22;11726;50.122;8.832;2022-10-17T04:51:14;12.60;99.90
23114;DHT22;11726;50.122;8.832;2022-10-17T04:53:41;12.70;99.90
23114;DHT22;11726;50.122;8.832;2022-10-17T04:56:17;12.70;99.90
23114;DHT22;11726;50.122;8.832;2022-10-17T04:58:44;12.70;99.90
23114;DHT22;11726;50.122;8.832;2022-10-17T05:01:13;12.70;99.90
23114;DHT22;11726;50.122;8.832;2022-10-17T05:03:41;12.70;99.90
23114;DHT22;11726;50.122;8.832;2022-10-17T05:06:10;12.60;99.90
23114;DHT22;11726;50.122;8.832;2022-10-17T05:08:37;12.60;99.90
23114;DHT22;11726;50.122;8.832;2022-10-17T05:11:04;12.60;99.90
23114;DHT22;11726;50.122;8.832;2022-10-17T05:13:31;12.60;99.90
23114;DHT22;11726;50.122;8.832;2022-10-17T05:15:59;12.60;99.90
23114;DHT22;11726;50.122;8.832;2022-10-17T05:18:27;12.50;99.90
23114;DHT22;11726;50.122;8.832;2022-10-17T05:20:55;12.50;99.90
23114;DHT22;11726;50.122;8.832;2022-10-17T05:23:22;12.50;99.90
23114;DHT22;11726;50.122;8.832;2022-10-17T05:25:53;12.50;99.90
23114;DHT22;11726;50.122;8.832;2022-10-17T05:28:21;12.50;99.90
23114;DHT22;11726;50.122;8.832;2022-10-17T05:30:47;12.50;99.90
23114;DHT22;11726;50.122;8.832;2022-10-17T05:33:14;12.40;99.90
23114;DHT22;11726;50.122;8.832;2022-10-17T05:35:41;12.30;99.90
23114;DHT22;11726;50.122;8.832;2022-10-17T05:38:08;12.40;99.90
23114;DHT22;11726;50.122;8.832;2022-10-17T05:40:34;12.40;99.90
23114;DHT22;11726;50.122;8.832;2022-10-17T05:43:01;12.40;99.90
23114;DHT22;11726;50.122;8.832;2022-10-17T05:45:28;12.40;99.90
23114;DHT22;11726;50.122;8.832;2022-10-17T05:47:54;12.40;99.90
23114;DHT22;11726;50.122;8.832;2022-10-17T05:50:21;12.40;99.90
23114;DHT22;11726;50.122;8.832;2022-10-17T05:52:52;12.40;99.90
23114;DHT22;11726;50.122;8.832;2022-10-17T05:55:19;12.40;99.90
23114;DHT22;11726;50.122;8.832;2022-10-17T05:57:46;12.40;99.90
23114;DHT22;11726;50.122;8.832;2022-10-17T06:00:13;12.40;99.90
23114;DHT22;11726;50.122;8.832;2022-10-17T06:02:40;12.40;99.90
23114;DHT22;11726;50.122;8.832;2022-10-17T06:05:07;12.40;99.90
23114;DHT22;11726;50.122;8.832;2022-10-17T06:07:34;12.40;99.90
23114;DHT22;11726;50.122;8.832;2022-10-17T06:10:01;12.40;99.90
23114;DHT22;11726;50.122;8.832;2022-10-17T06:12:27;12.40;99.90
23114;DHT22;11726;50.122;8.832;2022-10-17T06:14:54;12.40;99.90
23114;DHT22;11726;50.122;8.832;2022-10-17T06:17:21;12.40;99.90
23114;DHT22;11726;50.122;8.832;2022-10-17T06:19:47;12.40;99.90
23114;DHT22;11726;50.122;8.832;2022-10-17T06:22:14;12.40;99.90
23114;DHT22;11726;50.122;8.832;2022-10-17T06:24:40;12.40;99.90
23114;DHT22;11726;50.122;8.832;2022-10-17T06:27:07;12.30;99.90
23114;DHT22;11726;50.122;8.832;2022-10-17T06:29:37;12.30;99.90
23114;DHT22;11726;50.122;8.832;2022-10-17T06:32:05;12.40;99.90
23114;DHT22;11726;50.122;8.832;2022-10-17T06:34:36;12.50;99.90
23114;DHT22;11726;50.122;8.832;2022-10-17T06:37:03;12.50;99.90
23114;DHT22;11726;50.122;8.832;2022-10-17T06:39:30;12.50;99.90
23114;DHT22;11726;50.122;8.832;2022-10-17T06:41:59;12.50;99.90
23114;DHT22;11726;50.122;8.832;2022-10-17T06:44:26;12.60;99.90
23114;DHT22;11726;50.122;8.832;2022-10-17T06:46:57;12.60;99.90
23114;DHT22;11726;50.122;8.832;2022-10-17T06:49:24;12.70;99.90
23114;DHT22;11726;50.122;8.832;2022-10-17T06:51:51;12.70;99.90
23114;DHT22;11726;50.122;8.832;2022-10-17T06:54:18;12.80;99.90
23114;DHT22;11726;50.122;8.832;2022-10-17T06:56:44;12.80;99.90
23114;DHT22;11726;50.122;8.832;2022-10-17T06:59:11;12.90;99.90
23114;DHT22;11726;50.122;8.832;2022-10-17T07:01:38;12.90;99.90
23114;DHT22;11726;50.122;8.832;2022-10-17T07:04:09;13.00;99.90
23114;DHT22;11726;50.122;8.832;2022-10-17T07:06:37;13.00;99.90
23114;DHT22;11726;50.122;8.832;2022-10-17T07:09:04;13.10;99.90
23114;DHT22;11726;50.122;8.832;2022-10-17T07:11:32;13.10;99.90
23114;DHT22;11726;50.122;8.832;2022-10-17T07:14:02;13.20;99.90
23114;DHT22;11726;50.122;8.832;2022-10-17T07:16:29;13.40;99.90
23114;DHT22;11726;50.122;8.832;2022-10-17T07:18:55;13.50;99.90
23114;DHT22;11726;50.122;8.832;2022-10-17T07:21:22;13.50;99.90
23114;DHT22;11726;50.122;8.832;2022-10-17T07:23:49;13.70;99.90
23114;DHT22;11726;50.122;8.832;2022-10-17T07:26:17;13.70;99.90
23114;DHT22;11726;50.122;8.832;2022-10-17T07:28:46;13.90;99.90
23114;DHT22;11726;50.122;8.832;2022-10-17T07:31:17;13.90;99.90
23114;DHT22;11726;50.122;8.832;2022-10-17T07:33:45;14.00;99.90
23114;DHT22;11726;50.122;8.832;2022-10-17T07:36:17;14.10;99.90
23114;DHT22;11726;50.122;8.832;2022-10-17T07:38:44;14.10;99.90
23114;DHT22;11726;50.122;8.832;2022-10-17T07:41:11;14.20;99.90
23114;DHT22;11726;50.122;8.832;2022-10-17T07:43:44;14.30;99.90
23114;DHT22;11726;50.122;8.832;2022-10-17T07:46:11;14.40;99.90
23114;DHT22;11726;50.122;8.832;2022-10-17T07:48:38;14.50;99.90
23114;DHT22;11726;50.122;8.832;2022-10-17T07:51:07;14.60;99.90
23114;DHT22;11726;50.122;8.832;2022-10-17T07:53:35;14.70;99.90
23114;DHT22;11726;50.122;8.832;2022-10-17T07:56:06;14.80;99.90
23114;DHT22;11726;50.122;8.832;2022-10-17T07:58:34;14.90;99.90
23114;DHT22;11726;50.122;8.832;2022-10-17T08:01:05;15.00;99.90
23114;DHT22;11726;50.122;8.832;2022-10-17T08:03:37;15.10;99.90
23114;DHT22;11726;50.122;8.832;2022-10-17T08:06:04;15.20;99.90
23114;DHT22;11726;50.122;8.832;2022-10-17T08:08:31;15.30;99.90
23114;DHT22;11726;50.122;8.832;2022-10-17T08:11:04;15.40;99.90
23114;DHT22;11726;50.122;8.832;2022-10-17T08:13:31;15.60;99.90
23114;DHT22;11726;50.122;8.832;2022-10-17T08:15:59;15.70;99.90
23114;DHT22;11726;50.122;8.832;2022-10-17T08:18:26;15.80;99.90
23114;DHT22;11726;50.122;8.832;2022-10-17T08:20:53;15.90;99.90
23114;DHT22;11726;50.122;8.832;2022-10-17T08:23:26;16.00;99.90
23114;DHT22;11726;50.122;8.832;2022-10-17T08:25:52;16.20;99.90
23114;DHT22;11726;50.122;8.832;2022-10-17T08:28:19;16.30;99.90
23114;DHT22;11726;50.122;8.832;2022-10-17T08:30:45;16.50;99.90
23114;DHT22;11726;50.122;8.832;2022-10-17T08:33:12;16.60;99.90
23114;DHT22;11726;50.122;8.832;2022-10-17T08:35:39;16.70;99.90
23114;DHT22;11726;50.122;8.832;2022-10-17T08:38:05;16.70;99.90
23114;DHT22;11726;50.122;8.832;2022-10-17T08:40:36;16.80;99.90
23114;DHT22;11726;50.122;8.832;2022-10-17T08:43:11;16.90;99.90
23114;DHT22;11726;50.122;8.832;2022-10-17T08:45:59;16.90;99.90
23114;DHT22;11726;50.122;8.832;2022-10-17T08:48:32;16.90;99.90
23114;DHT22;11726;50.122;8.832;2022-10-17T08:51:21;16.90;99.90
23114;DHT22;11726;50.122;8.832;2022-10-17T08:56:49;17.00;99.90
23114;DHT22;11726;50.122;8.832;2022-10-17T08:59:20;17.00;99.90
23114;DHT22;11726;50.122;8.832;2022-10-17T09:05:20;17.20;99.90
23114;DHT22;11726;50.122;8.832;2022-10-17T09:07:55;17.30;99.90
23114;DHT22;11726;50.122;8.832;2022-10-17T09:10:51;17.50;99.90
23114;DHT22;11726;50.122;8.832;2022-10-17T09:16:25;17.70;99.90
23114;DHT22;11726;50.122;8.832;2022-10-17T09:21:57;17.90;99.90
23114;DHT22;11726;50.122;8.832;2022-10-17T09:24:35;17.90;99.90
23114;DHT22;11726;50.122;8.832;2022-10-17T09:27:03;18.00;99.90
23114;DHT22;11726;50.122;8.832;2022-10-17T09:29:31;18.00;99.90
23114;DHT22;11726;50.122;8.832;2022-10-17T09:32:12;18.10;99.90
23114;DHT22;11726;50.122;8.832;2022-10-17T09:34:40;18.20;99.90
23114;DHT22;11726;50.122;8.832;2022-10-17T09:37:12;18.20;99.90
23114;DHT22;11726;50.122;8.832;2022-10-17T09:39:41;18.20;99.90
23114;DHT22;11726;50.122;8.832;2022-10-17T09:42:15;18.30;99.90
23114;DHT22;11726;50.122;8.832;2022-10-17T09:44:54;18.30;99.90
23114;DHT22;11726;50.122;8.832;2022-10-17T09:47:33;18.40;99.90
23114;DHT22;11726;50.122;8.832;2022-10-17T09:50:13;18.50;99.90
23114;DHT22;11726;50.122;8.832;2022-10-17T09:52:42;18.60;99.90
23114;DHT22;11726;50.122;8.832;2022-10-17T09:55:20;18.70;99.90
23114;DHT22;11726;50.122;8.832;2022-10-17T09:57:55;18.70;99.90
23114;DHT22;11726;50.122;8.832;2022-10-17T10:00:28;18.70;99.90
23114;DHT22;11726;50.122;8.832;2022-10-17T10:03:09;18.80;99.90
23114;DHT22;11726;50.122;8.832;2022-10-17T10:05:36;18.80;99.90
23114;DHT22;11726;50.122;8.832;2022-10-17T10:08:13;18.90;99.90
23114;DHT22;11726;50.122;8.832;2022-10-17T10:10:40;19.00;99.90
23114;DHT22;11726;50.122;8.832;2022-10-17T10:18:30;19.10;99.90
23114;DHT22;11726;50.122;8.832;2022-10-17T10:21:13;19.20;99.90
23114;DHT22;11726;50.122;8.832;2022-10-17T10:23:45;19.40;99.90
23114;DHT22;11726;50.122;8.832;2022-10-17T10:26:22;19.50;99.90
23114;DHT22;11726;50.122;8.832;2022-10-17T10:28:58;19.60;99.90
23114;DHT22;11726;50.122;8.832;2022-10-17T10:31:32;19.80;99.90
23114;DHT22;11726;50.122;8.832;2022-10-17T10:34:02;19.90;99.90
23114;DHT22;11726;50.122;8.832;2022-10-17T10:36:45;20.10;99.90
23114;DHT22;11726;50.122;8.832;2022-10-17T10:39:26;20.30;99.90
23114;DHT22;11726;50.122;8.832;2022-10-17T10:41:54;20.40;99.90
23114;DHT22;11726;50.122;8.832;2022-10-17T10:44:23;20.60;99.90
23114;DHT22;11726;50.122;8.832;2022-10-17T10:47:15;20.60;99.90
23114;DHT22;11726;50.122;8.832;2022-10-17T10:49:42;20.70;99.90
23114;DHT22;11726;50.122;8.832;2022-10-17T10:52:40;20.80;99.90
23114;DHT22;11726;50.122;8.832;2022-10-17T10:55:35;21.00;99.90
23114;DHT22;11726;50.122;8.832;2022-10-17T10:58:29;21.20;99.90
23114;DHT22;11726;50.122;8.832;2022-10-17T11:01:04;21.40;99.90
23114;DHT22;11726;50.122;8.832;2022-10-17T11:03:36;22.00;99.90
23114;DHT22;11726;50.122;8.832;2022-10-17T11:06:20;22.80;99.90
23114;DHT22;11726;50.122;8.832;2022-10-17T11:08:56;22.70;99.90
23114;DHT22;11726;50.122;8.832;2022-10-17T11:11:32;22.60;99.90
23114;DHT22;11726;50.122;8.832;2022-10-17T11:14:22;22.70;99.90
23114;DHT22;11726;50.122;8.832;2022-10-17T11:17:07;22.80;99.90
23114;DHT22;11726;50.122;8.832;2022-10-17T11:19:55;22.90;99.90
23114;DHT22;11726;50.122;8.832;2022-10-17T11:22:31;23.00;99.90
23114;DHT22;11726;50.122;8.832;2022-10-17T11:25:05;23.10;99.90
23114;DHT22;11726;50.122;8.832;2022-10-17T11:27:34;23.10;99.90
23114;DHT22;11726;50.122;8.832;2022-10-17T11:30:02;23.30;99.90
23114;DHT22;11726;50.122;8.832;2022-10-17T11:35:46;23.80;99.90
23114;DHT22;11726;50.122;8.832;2022-10-17T11:41:02;24.00;99.90
23114;DHT22;11726;50.122;8.832;2022-10-17T11:46:16;24.30;99.90
23114;DHT22;11726;50.122;8.832;2022-10-17T11:49:12;24.30;99.90
23114;DHT22;11726;50.122;8.832;2022-10-17T11:51:49;24.30;99.90
23114;DHT22;11726;50.122;8.832;2022-10-17T11:54:38;24.20;99.90
23114;DHT22;11726;50.122;8.832;2022-10-17T12:03:16;24.20;99.90
23114;DHT22;11726;50.122;8.832;2022-10-17T12:14:00;24.20;99.90
23114;DHT22;11726;50.122;8.832;2022-10-17T12:21:28;24.30;99.90
23114;DHT22;11726;50.122;8.832;2022-10-17T12:24:52;24.50;99.90
23114;DHT22;11726;50.122;8.832;2022-10-17T12:27:38;24.50;99.90
23114;DHT22;11726;50.122;8.832;2022-10-17T12:30:24;24.60;99.90
23114;DHT22;11726;50.122;8.832;2022-10-17T12:33:55;24.50;99.90
23114;DHT22;11726;50.122;8.832;2022-10-17T12:35:50;24.30;99.90
23114;DHT22;11726;50.122;8.832;2022-10-17T12:45:54;24.90;99.90
23114;DHT22;11726;50.122;8.832;2022-10-17T12:51:10;25.00;99.90
23114;DHT22;11726;50.122;8.832;2022-10-17T12:54:00;25.10;99.90
23114;DHT22;11726;50.122;8.832;2022-10-17T12:59:13;25.20;99.90
23114;DHT22;11726;50.122;8.832;2022-10-17T13:01:44;25.20;99.90
23114;DHT22;11726;50.122;8.832;2022-10-17T13:04:12;25.20;99.90
23114;DHT22;11726;50.122;8.832;2022-10-17T13:06:45;25.30;99.90
23114;DHT22;11726;50.122;8.832;2022-10-17T13:09:29;25.30;99.90
23114;DHT22;11726;50.122;8.832;2022-10-17T13:11:59;25.30;99.90
23114;DHT22;11726;50.122;8.832;2022-10-17T13:14:28;25.40;99.90
23114;DHT22;11726;50.122;8.832;2022-10-17T13:17:00;25.30;99.90
23114;DHT22;11726;50.122;8.832;2022-10-17T13:19:42;25.30;99.90
23114;DHT22;11726;50.122;8.832;2022-10-17T13:22:22;25.30;99.90
23114;DHT22;11726;50.122;8.832;2022-10-17T13:24:50;25.60;99.90
23114;DHT22;11726;50.122;8.832;2022-10-17T13:27:32;25.70;99.90
23114;DHT22;11726;50.122;8.832;2022-10-17T13:30:23;26.10;99.90
23114;DHT22;11726;50.122;8.832;2022-10-17T13:32:47;26.50;99.90
23114;DHT22;11726;50.122;8.832;2022-10-17T13:35:20;26.20;99.90
23114;DHT22;11726;50.122;8.832;2022-10-17T13:38:04;26.00;99.90
23114;DHT22;11726;50.122;8.832;2022-10-17T13:40:40;25.90;99.90
23114;DHT22;11726;50.122;8.832;2022-10-17T13:43:20;26.20;99.90
23114;DHT22;11726;50.122;8.832;2022-10-17T13:45:52;26.60;99.90
23114;DHT22;11726;50.122;8.832;2022-10-17T13:48:22;26.40;99.90
23114;DHT22;11726;50.122;8.832;2022-10-17T13:50:52;26.30;99.90
23114;DHT22;11726;50.122;8.832;2022-10-17T13:53:25;26.00;99.90
23114;DHT22;11726;50.122;8.832;2022-10-17T13:55:59;25.80;99.90
23114;DHT22;11726;50.122;8.832;2022-10-17T13:58:54;25.70;99.90
23114;DHT22;11726;50.122;8.832;2022-10-17T14:01:24;25.60;99.90
23114;DHT22;11726;50.122;8.832;2022-10-17T14:03:51;25.40;99.90
23114;DHT22;11726;50.122;8.832;2022-10-17T14:06:32;25.10;99.90
23114;DHT22;11726;50.122;8.832;2022-10-17T14:09:03;25.00;99.90
23114;DHT22;11726;50.122;8.832;2022-10-17T14:11:37;24.80;99.90
23114;DHT22;11726;50.122;8.832;2022-10-17T14:14:16;24.70;99.90
23114;DHT22;11726;50.122;8.832;2022-10-17T14:16:44;24.60;99.90
23114;DHT22;11726;50.122;8.832;2022-10-17T14:19:24;24.50;99.90
23114;DHT22;11726;50.122;8.832;2022-10-17T14:21:54;24.30;99.90
23114;DHT22;11726;50.122;8.832;2022-10-17T14:26:54;24.30;99.90
23114;DHT22;11726;50.122;8.832;2022-10-17T14:31:59;24.00;99.90
23114;DHT22;11726;50.122;8.832;2022-10-17T14:34:33;24.10;99.90
23114;DHT22;11726;50.122;8.832;2022-10-17T14:37:01;24.00;99.90
23114;DHT22;11726;50.122;8.832;2022-10-17T14:39:28;23.90;99.90
23114;DHT22;11726;50.122;8.832;2022-10-17T14:41:55;23.80;99.90
23114;DHT22;11726;50.122;8.832;2022-10-17T14:44:34;23.80;99.90
23114;DHT22;11726;50.122;8.832;2022-10-17T14:47:05;23.80;99.90
23114;DHT22;11726;50.122;8.832;2022-10-17T14:52:37;23.60;99.90
23114;DHT22;11726;50.122;8.832;2022-10-17T14:55:24;23.60;99.90
23114;DHT22;11726;50.122;8.832;2022-10-17T14:57:51;23.60;99.90
23114;DHT22;11726;50.122;8.832;2022-10-17T15:00:18;23.60;99.90
23114;DHT22;11726;50.122;8.832;2022-10-17T15:02:46;23.50;99.90
23114;DHT22;11726;50.122;8.832;2022-10-17T15:05:14;23.40;99.90
23114;DHT22;11726;50.122;8.832;2022-10-17T15:07:41;23.40;99.90
23114;DHT22;11726;50.122;8.832;2022-10-17T15:10:30;23.30;99.90
23114;DHT22;11726;50.122;8.832;2022-10-17T15:12:57;23.30;99.90
23114;DHT22;11726;50.122;8.832;2022-10-17T15:15:45;23.30;99.90
23114;DHT22;11726;50.122;8.832;2022-10-17T15:18:16;23.30;99.90
23114;DHT22;11726;50.122;8.832;2022-10-17T15:20:43;23.20;99.90
23114;DHT22;11726;50.122;8.832;2022-10-17T15:23:10;23.20;99.90
23114;DHT22;11726;50.122;8.832;2022-10-17T15:25:36;23.10;99.90
23114;DHT22;11726;50.122;8.832;2022-10-17T15:28:04;23.10;99.90
23114;DHT22;11726;50.122;8.832;2022-10-17T15:30:33;22.90;99.90
23114;DHT22;11726;50.122;8.832;2022-10-17T15:33:00;22.80;99.90
23114;DHT22;11726;50.122;8.832;2022-10-17T15:35:27;22.70;99.90
23114;DHT22;11726;50.122;8.832;2022-10-17T15:37:54;22.60;99.90
23114;DHT22;11726;50.122;8.832;2022-10-17T15:40:23;22.50;99.90
23114;DHT22;11726;50.122;8.832;2022-10-17T15:42:50;22.50;99.90
23114;DHT22;11726;50.122;8.832;2022-10-17T15:45:18;22.40;99.90
23114;DHT22;11726;50.122;8.832;2022-10-17T15:47:52;22.30;99.90
23114;DHT22;11726;50.122;8.832;2022-10-17T15:50:19;22.20;99.90
23114;DHT22;11726;50.122;8.832;2022-10-17T15:52:48;22.20;99.90
23114;DHT22;11726;50.122;8.832;2022-10-17T15:55:16;22.10;99.90
23114;DHT22;11726;50.122;8.832;2022-10-17T15:57:45;22.00;99.90
23114;DHT22;11726;50.122;8.832;2022-10-17T16:00:19;21.90;99.90
23114;DHT22;11726;50.122;8.832;2022-10-17T16:02:47;21.80;99.90
23114;DHT22;11726;50.122;8.832;2022-10-17T16:05:20;21.70;99.90
23114;DHT22;11726;50.122;8.832;2022-10-17T16:07:52;21.60;99.90
23114;DHT22;11726;50.122;8.832;2022-10-17T16:10:20;21.40;99.90
23114;DHT22;11726;50.122;8.832;2022-10-17T16:12:47;21.30;99.90
23114;DHT22;11726;50.122;8.832;2022-10-17T16:15:18;21.20;99.90
23114;DHT22;11726;50.122;8.832;2022-10-17T16:17:44;21.10;99.90
23114;DHT22;11726;50.122;8.832;2022-10-17T16:20:12;21.00;99.90
23114;DHT22;11726;50.122;8.832;2022-10-17T16:22:41;20.90;99.90
23114;DHT22;11726;50.122;8.832;2022-10-17T16:27:46;20.70;99.90
23114;DHT22;11726;50.122;8.832;2022-10-17T16:30:13;20.60;99.90
23114;DHT22;11726;50.122;8.832;2022-10-17T16:32:40;20.50;99.90
23114;DHT22;11726;50.122;8.832;2022-10-17T16:35:08;20.50;99.90
23114;DHT22;11726;50.122;8.832;2022-10-17T16:37:36;20.40;99.90
23114;DHT22;11726;50.122;8.832;2022-10-17T16:40:03;20.30;99.90
23114;DHT22;11726;50.122;8.832;2022-10-17T16:42:30;20.30;99.90
23114;DHT22;11726;50.122;8.832;2022-10-17T16:44:57;20.20;99.90
23114;DHT22;11726;50.122;8.832;2022-10-17T16:47:24;20.10;99.90
23114;DHT22;11726;50.122;8.832;2022-10-17T16:49:50;20.00;99.90
23114;DHT22;11726;50.122;8.832;2022-10-17T16:52:17;19.90;99.90
23114;DHT22;11726;50.122;8.832;2022-10-17T16:54:44;19.80;99.90
23114;DHT22;11726;50.122;8.832;2022-10-17T16:57:11;19.80;99.90
23114;DHT22;11726;50.122;8.832;2022-10-17T16:59:37;19.80;99.90
23114;DHT22;11726;50.122;8.832;2022-10-17T17:02:04;19.70;99.90
23114;DHT22;11726;50.122;8.832;2022-10-17T17:04:31;19.60;99.90
23114;DHT22;11726;50.122;8.832;2022-10-17T17:06:57;19.50;99.90
23114;DHT22;11726;50.122;8.832;2022-10-17T17:09:24;19.40;99.90
23114;DHT22;11726;50.122;8.832;2022-10-17T17:11:51;19.40;99.90
23114;DHT22;11726;50.122;8.832;2022-10-17T17:14:17;19.30;99.90
23114;DHT22;11726;50.122;8.832;2022-10-17T17:16:44;19.30;99.90
23114;DHT22;11726;50.122;8.832;2022-10-17T17:19:12;19.20;99.90
23114;DHT22;11726;50.122;8.832;2022-10-17T17:21:40;19.20;99.90
23114;DHT22;11726;50.122;8.832;2022-10-17T17:24:13;19.10;99.90
23114;DHT22;11726;50.122;8.832;2022-10-17T17:26:39;19.10;99.90
23114;DHT22;11726;50.122;8.832;2022-10-17T17:29:07;19.00;99.90
23114;DHT22;11726;50.122;8.832;2022-10-17T17:31:34;19.00;99.90
23114;DHT22;11726;50.122;8.832;2022-10-17T17:34:02;18.90;99.90
23114;DHT22;11726;50.122;8.832;2022-10-17T17:36:31;18.90;99.90
23114;DHT22;11726;50.122;8.832;2022-10-17T17:38:59;18.80;99.90